sensor_id;sensor_type;location;lat;lon;timestamp;pressure;altitude;pressure_sealevel;temperature
60615;BMP280;46444;45.590;5.284;2023-05-10T00:01:41;98820.38;;;15.97
60615;BMP280;46444;45.590;5.284;2023-05-10T00:04:20;98819.03;;;15.95
60615;BMP280;46444;45.590;5.284;2023-05-10T00:07:01;98809.84;;;15.91
60615;BMP280;46444;45.590;5.284;2023-05-10T00:10:22;98810.94;;;15.90
60615;BMP280;46444;45.590;5.284;2023-05-10T00:13:36;98802.84;;;15.85
60615;BMP280;46444;45.590;5.284;2023-05-10T00:16:47;98788.31;;;15.76
60615;BMP280;46444;45.590;5.284;2023-05-10T00:19:46;98785.06;;;15.74
60615;BMP280;46444;45.590;5.284;2023-05-10T00:22:21;98782.91;;;15.66
60615;BMP280;46444;45.590;5.284;2023-05-10T00:25:29;98779.13;;;15.67
60615;BMP280;46444;45.590;5.284;2023-05-10T00:28:22;98784.53;;;15.62
60615;BMP280;46444;45.590;5.284;2023-05-10T00:41:15;98793.13;;;15.44
60615;BMP280;46444;45.590;5.284;2023-05-10T00:46:57;98821.13;;;15.43
60615;BMP280;46444;45.590;5.284;2023-05-10T00:49:29;98824.91;;;15.42
60615;BMP280;46444;45.590;5.284;2023-05-10T00:58:35;98831.38;;;15.46
60615;BMP280;46444;45.590;5.284;2023-05-10T01:01:17;98833.00;;;15.42
60615;BMP280;46444;45.590;5.284;2023-05-10T01:03:57;98830.84;;;15.49
60615;BMP280;46444;45.590;5.284;2023-05-10T01:06:44;98811.75;;;15.55
60615;BMP280;46444;45.590;5.284;2023-05-10T01:09:35;98823.31;;;15.51
60615;BMP280;46444;45.590;5.284;2023-05-10T01:18:54;98824.94;;;15.52
60615;BMP280;46444;45.590;5.284;2023-05-10T01:46:05;98837.56;;;15.51
60615;BMP280;46444;45.590;5.284;2023-05-10T02:03:33;98832.97;;;15.37
60615;BMP280;46444;45.590;5.284;2023-05-10T02:06:38;98830.84;;;15.49
60615;BMP280;46444;45.590;5.284;2023-05-10T02:16:50;98839.38;;;15.31
60615;BMP280;46444;45.590;5.284;2023-05-10T02:20:35;98835.66;;;15.37
60615;BMP280;46444;45.590;5.284;2023-05-10T02:23:52;98837.25;;;15.28
60615;BMP280;46444;45.590;5.284;2023-05-10T02:30:36;98845.34;;;15.38
60615;BMP280;46444;45.590;5.284;2023-05-10T02:33:25;98838.38;;;15.47
60615;BMP280;46444;45.590;5.284;2023-05-10T02:36:04;98837.50;;;15.26
60615;BMP280;46444;45.590;5.284;2023-05-10T02:38:31;98843.75;;;15.37
60615;BMP280;46444;45.590;5.284;2023-05-10T02:40:59;98843.22;;;15.35
60615;BMP280;46444;45.590;5.284;2023-05-10T02:43:25;98842.34;;;15.24
60615;BMP280;46444;45.590;5.284;2023-05-10T02:45:52;98835.66;;;15.37
60615;BMP280;46444;45.590;5.284;2023-05-10T02:48:22;98838.56;;;15.20
60615;BMP280;46444;45.590;5.284;2023-05-10T02:50:52;98848.84;;;15.33
60615;BMP280;46444;45.590;5.284;2023-05-10T02:53:40;98851.03;;;15.41
60615;BMP280;46444;45.590;5.284;2023-05-10T02:56:35;98843.69;;;15.32
60615;BMP280;46444;45.590;5.284;2023-05-10T02:59:04;98840.53;;;15.40
60615;BMP280;46444;45.590;5.284;2023-05-10T03:01:34;98839.94;;;15.28
60615;BMP280;46444;45.590;5.284;2023-05-10T03:04:15;98840.47;;;15.30
60615;BMP280;46444;45.590;5.284;2023-05-10T03:06:41;98837.84;;;15.40
60615;BMP280;46444;45.590;5.284;2023-05-10T03:09:10;98848.53;;;15.30
60615;BMP280;46444;45.590;5.284;2023-05-10T03:11:59;98836.41;;;15.22
60615;BMP280;46444;45.590;5.284;2023-05-10T03:19:56;98843.13;;;15.20
60615;BMP280;46444;45.590;5.284;2023-05-10T03:22:29;98841.34;;;15.35
60615;BMP280;46444;45.590;5.284;2023-05-10T03:25:06;98849.94;;;15.37
60615;BMP280;46444;45.590;5.284;2023-05-10T03:27:40;98843.25;;;15.45
60615;BMP280;46444;45.590;5.284;2023-05-10T03:30:11;98839.19;;;15.37
60615;BMP280;46444;45.590;5.284;2023-05-10T03:32:39;98848.06;;;15.33
60615;BMP280;46444;45.590;5.284;2023-05-10T03:35:08;98842.13;;;15.41
60615;BMP280;46444;45.590;5.284;2023-05-10T03:37:38;98838.59;;;15.30
60615;BMP280;46444;45.590;5.284;2023-05-10T03:40:04;98843.50;;;15.43
60615;BMP280;46444;45.590;5.284;2023-05-10T03:42:35;98844.84;;;15.46
60615;BMP280;46444;45.590;5.284;2023-05-10T03:45:05;98849.16;;;15.47
60615;BMP280;46444;45.590;5.284;2023-05-10T03:47:32;98842.13;;;15.41
60615;BMP280;46444;45.590;5.284;2023-05-10T03:50:14;98839.47;;;15.46
60615;BMP280;46444;45.590;5.284;2023-05-10T03:52:56;98843.22;;;15.35
60615;BMP280;46444;45.590;5.284;2023-05-10T04:08:06;98845.94;;;15.45
60615;BMP280;46444;45.590;5.284;2023-05-10T04:10:40;98854.28;;;15.43
60615;BMP280;46444;45.590;5.284;2023-05-10T04:13:14;98860.94;;;15.31
60615;BMP280;46444;45.590;5.284;2023-05-10T04:21:57;98862.81;;;15.30
60615;BMP280;46444;45.590;5.284;2023-05-10T04:24:49;98861.97;;;15.25
60615;BMP280;46444;45.590;5.284;2023-05-10T04:27:28;98863.66;;;15.36
60615;BMP280;46444;45.590;5.284;2023-05-10T04:34:00;98874.97;;;15.33
60615;BMP280;46444;45.590;5.284;2023-05-10T04:40:17;98880.78;;;15.10
60615;BMP280;46444;45.590;5.284;2023-05-10T04:42:54;98872.13;;;14.98
60615;BMP280;46444;45.590;5.284;2023-05-10T04:46:00;98877.81;;;15.06
60615;BMP280;46444;45.590;5.284;2023-05-10T04:55:08;98873.91;;;14.77
60615;BMP280;46444;45.590;5.284;2023-05-10T05:35:42;98923.66;;;14.38
60615;BMP280;46444;45.590;5.284;2023-05-10T05:38:12;98928.25;;;14.43
60615;BMP280;46444;45.590;5.284;2023-05-10T05:40:37;98927.84;;;14.61
60615;BMP280;46444;45.590;5.284;2023-05-10T05:43:03;98928.16;;;14.64
60615;BMP280;46444;45.590;5.284;2023-05-10T05:45:28;98930.84;;;14.64
60615;BMP280;46444;45.590;5.284;2023-05-10T05:47:53;98937.78;;;14.55
60615;BMP280;46444;45.590;5.284;2023-05-10T05:50:19;98932.59;;;14.44
60615;BMP280;46444;45.590;5.284;2023-05-10T05:52:44;98932.25;;;14.35
60615;BMP280;46444;45.590;5.284;2023-05-10T05:55:10;98940.22;;;14.57
60615;BMP280;46444;45.590;5.284;2023-05-10T06:30:56;98942.56;;;14.90
60615;BMP280;46444;45.590;5.284;2023-05-10T07:20:46;98955.91;;;14.70
60615;BMP280;46444;45.590;5.284;2023-05-10T07:23:55;98976.16;;;14.82
60615;BMP280;46444;45.590;5.284;2023-05-10T07:26:41;98966.44;;;14.81
60615;BMP280;46444;45.590;5.284;2023-05-10T07:29:06;98976.97;;;14.83
60615;BMP280;46444;45.590;5.284;2023-05-10T07:31:36;98970.06;;;14.97
60615;BMP280;46444;45.590;5.284;2023-05-10T07:34:07;98974.63;;;14.96
60615;BMP280;46444;45.590;5.284;2023-05-10T07:37:52;98977.22;;;15.23
60615;BMP280;46444;45.590;5.284;2023-05-10T07:40:57;98975.50;;;15.07
60615;BMP280;46444;45.590;5.284;2023-05-10T07:43:24;98974.34;;;14.93
60615;BMP280;46444;45.590;5.284;2023-05-10T15:30:49;98831.03;;;22.06
60615;BMP280;46444;45.590;5.284;2023-05-10T15:33:15;98830.69;;;22.52
60615;BMP280;46444;45.590;5.284;2023-05-10T15:35:40;98828.75;;;22.83
60615;BMP280;46444;45.590;5.284;2023-05-10T15:38:06;98819.47;;;23.31
60615;BMP280;46444;45.590;5.284;2023-05-10T15:40:32;98824.78;;;23.62
60615;BMP280;46444;45.590;5.284;2023-05-10T15:42:57;98823.06;;;23.91
60615;BMP280;46444;45.590;5.284;2023-05-10T15:45:22;98811.94;;;23.45
60615;BMP280;46444;45.590;5.284;2023-05-10T15:47:48;98821.34;;;22.75
60615;BMP280;46444;45.590;5.284;2023-05-10T15:50:14;98814.94;;;22.40
60615;BMP280;46444;45.590;5.284;2023-05-10T15:52:40;98817.13;;;22.38
60615;BMP280;46444;45.590;5.284;2023-05-10T15:55:07;98822.84;;;22.50
60615;BMP280;46444;45.590;5.284;2023-05-10T15:57:40;98815.16;;;23.30
60615;BMP280;46444;45.590;5.284;2023-05-10T16:00:09;98824.19;;;23.00
60615;BMP280;46444;45.590;5.284;2023-05-10T16:02:35;98821.13;;;23.75
60615;BMP280;46444;45.590;5.284;2023-05-10T16:05:01;98815.81;;;23.87
60615;BMP280;46444;45.590;5.284;2023-05-10T16:07:26;98815.31;;;24.27
60615;BMP280;46444;45.590;5.284;2023-05-10T16:09:52;98819.75;;;24.57
60615;BMP280;46444;45.590;5.284;2023-05-10T16:12:17;98815.22;;;24.70
60615;BMP280;46444;45.590;5.284;2023-05-10T16:14:43;98813.41;;;24.74
60615;BMP280;46444;45.590;5.284;2023-05-10T16:17:08;98817.47;;;24.59
60615;BMP280;46444;45.590;5.284;2023-05-10T16:19:33;98807.50;;;25.01
60615;BMP280;46444;45.590;5.284;2023-05-10T16:21:59;98804.28;;;24.99
60615;BMP280;46444;45.590;5.284;2023-05-10T16:24:24;98811.66;;;25.07
60615;BMP280;46444;45.590;5.284;2023-05-10T16:26:50;98805.44;;;25.27
60615;BMP280;46444;45.590;5.284;2023-05-10T16:29:16;98806.13;;;25.15
60615;BMP280;46444;45.590;5.284;2023-05-10T16:31:41;98800.78;;;25.27
60615;BMP280;46444;45.590;5.284;2023-05-10T16:34:07;98801.91;;;25.26
60615;BMP280;46444;45.590;5.284;2023-05-10T16:36:32;98802.59;;;25.44
60615;BMP280;46444;45.590;5.284;2023-05-10T16:38:57;98792.25;;;25.49
60615;BMP280;46444;45.590;5.284;2023-05-10T16:41:23;98782.91;;;25.50
60615;BMP280;46444;45.590;5.284;2023-05-10T16:43:48;98796.78;;;25.16
60615;BMP280;46444;45.590;5.284;2023-05-10T16:46:14;98792.13;;;24.88
60615;BMP280;46444;45.590;5.284;2023-05-10T16:48:40;98793.50;;;24.73
60615;BMP280;46444;45.590;5.284;2023-05-10T16:51:05;98788.31;;;24.80
60615;BMP280;46444;45.590;5.284;2023-05-10T16:53:33;98790.97;;;24.51
60615;BMP280;46444;45.590;5.284;2023-05-10T16:55:58;98787.69;;;24.20
60615;BMP280;46444;45.590;5.284;2023-05-10T16:58:24;98785.28;;;24.10
60615;BMP280;46444;45.590;5.284;2023-05-10T17:00:49;98784.00;;;24.16
60615;BMP280;46444;45.590;5.284;2023-05-10T17:03:15;98782.25;;;24.03
60615;BMP280;46444;45.590;5.284;2023-05-10T17:05:40;98784.38;;;23.89
60615;BMP280;46444;45.590;5.284;2023-05-10T17:08:06;98784.53;;;24.01
60615;BMP280;46444;45.590;5.284;2023-05-10T17:10:31;98772.13;;;24.04
60615;BMP280;46444;45.590;5.284;2023-05-10T17:12:57;98773.75;;;24.05
60615;BMP280;46444;45.590;5.284;2023-05-10T17:15:22;98779.69;;;23.81
60615;BMP280;46444;45.590;5.284;2023-05-10T17:17:47;98784.34;;;23.72
60615;BMP280;46444;45.590;5.284;2023-05-10T17:20:13;98772.13;;;23.27
60615;BMP280;46444;45.590;5.284;2023-05-10T17:22:38;98772.97;;;23.36
60615;BMP280;46444;45.590;5.284;2023-05-10T17:25:04;98772.06;;;23.10
60615;BMP280;46444;45.590;5.284;2023-05-10T17:27:29;98770.75;;;22.91
60615;BMP280;46444;45.590;5.284;2023-05-10T17:29:58;98765.59;;;22.81
60615;BMP280;46444;45.590;5.284;2023-05-10T17:32:24;98770.16;;;23.02
60615;BMP280;46444;45.590;5.284;2023-05-10T17:34:49;98769.34;;;23.02
60615;BMP280;46444;45.590;5.284;2023-05-10T17:37:14;98772.16;;;22.71
60615;BMP280;46444;45.590;5.284;2023-05-10T17:39:40;98765.28;;;22.74
60615;BMP280;46444;45.590;5.284;2023-05-10T17:42:05;98771.34;;;22.40
60615;BMP280;46444;45.590;5.284;2023-05-10T17:44:31;98766.44;;;22.20
60615;BMP280;46444;45.590;5.284;2023-05-10T17:46:56;98757.91;;;22.13
60615;BMP280;46444;45.590;5.284;2023-05-10T17:49:22;98756.81;;;21.92
60615;BMP280;46444;45.590;5.284;2023-05-10T17:51:48;98747.41;;;21.98
60615;BMP280;46444;45.590;5.284;2023-05-10T17:54:14;98757.38;;;22.03
60615;BMP280;46444;45.590;5.284;2023-05-10T17:56:40;98756.66;;;21.67
60615;BMP280;46444;45.590;5.284;2023-05-10T17:59:05;98766.44;;;21.68
60615;BMP280;46444;45.590;5.284;2023-05-10T18:01:31;98774.34;;;21.42
60615;BMP280;46444;45.590;5.284;2023-05-10T18:03:56;98765.25;;;21.11
60615;BMP280;46444;45.590;5.284;2023-05-10T18:06:22;98769.28;;;21.14
60615;BMP280;46444;45.590;5.284;2023-05-10T18:08:50;98773.50;;;21.20
60615;BMP280;46444;45.590;5.284;2023-05-10T18:11:16;98772.75;;;20.92
60615;BMP280;46444;45.590;5.284;2023-05-10T18:13:41;98770.91;;;20.88
60615;BMP280;46444;45.590;5.284;2023-05-10T18:16:06;98765.59;;;20.83
60615;BMP280;46444;45.590;5.284;2023-05-10T18:18:37;98770.09;;;20.60
60615;BMP280;46444;45.590;5.284;2023-05-10T18:21:03;98776.13;;;20.44
60615;BMP280;46444;45.590;5.284;2023-05-10T18:23:29;98780.22;;;20.28
60615;BMP280;46444;45.590;5.284;2023-05-10T18:34:21;98776.69;;;19.82
60615;BMP280;46444;45.590;5.284;2023-05-10T18:36:46;98792.53;;;19.56
60615;BMP280;46444;45.590;5.284;2023-05-10T18:39:11;98783.22;;;19.44
60615;BMP280;46444;45.590;5.284;2023-05-10T18:41:37;98786.38;;;19.33
60615;BMP280;46444;45.590;5.284;2023-05-10T18:44:03;98777.72;;;19.30
60615;BMP280;46444;45.590;5.284;2023-05-10T18:46:28;98788.72;;;19.21
60615;BMP280;46444;45.590;5.284;2023-05-10T18:48:54;98788.13;;;19.23
60615;BMP280;46444;45.590;5.284;2023-05-10T18:51:19;98789.22;;;18.81
60615;BMP280;46444;45.590;5.284;2023-05-10T18:53:46;98780.66;;;18.74
60615;BMP280;46444;45.590;5.284;2023-05-10T18:56:12;98779.97;;;18.63
60615;BMP280;46444;45.590;5.284;2023-05-10T18:58:37;98779.44;;;18.38
60615;BMP280;46444;45.590;5.284;2023-05-10T19:01:03;98782.31;;;18.46
60615;BMP280;46444;45.590;5.284;2023-05-10T19:03:29;98776.69;;;18.43
60615;BMP280;46444;45.590;5.284;2023-05-10T19:05:54;98780.38;;;17.95
60615;BMP280;46444;45.590;5.284;2023-05-10T19:08:21;98782.47;;;18.03
60615;BMP280;46444;45.590;5.284;2023-05-10T19:10:46;98785.97;;;18.03
60615;BMP280;46444;45.590;5.284;2023-05-10T19:13:11;98788.41;;;18.00
60615;BMP280;46444;45.590;5.284;2023-05-10T19:15:39;98787.34;;;18.01
60615;BMP280;46444;45.590;5.284;2023-05-10T19:18:04;98788.63;;;17.75
60615;BMP280;46444;45.590;5.284;2023-05-10T19:20:30;98794.50;;;17.87
60615;BMP280;46444;45.590;5.284;2023-05-10T19:22:55;98799.91;;;17.87
60615;BMP280;46444;45.590;5.284;2023-05-10T19:25:21;98796.44;;;17.81
60615;BMP280;46444;45.590;5.284;2023-05-10T19:27:46;98791.38;;;17.70
60615;BMP280;46444;45.590;5.284;2023-05-10T19:30:12;98808.59;;;17.45
60615;BMP280;46444;45.590;5.284;2023-05-10T19:32:37;98815.75;;;17.16
60615;BMP280;46444;45.590;5.284;2023-05-10T19:35:03;98815.97;;;17.25
60615;BMP280;46444;45.590;5.284;2023-05-10T19:37:28;98815.94;;;17.35
60615;BMP280;46444;45.590;5.284;2023-05-10T19:39:54;98817.63;;;17.16
60615;BMP280;46444;45.590;5.284;2023-05-10T19:42:19;98820.22;;;16.82
60615;BMP280;46444;45.590;5.284;2023-05-10T19:44:44;98826.47;;;16.68
60615;BMP280;46444;45.590;5.284;2023-05-10T19:47:10;98825.34;;;16.79
60615;BMP280;46444;45.590;5.284;2023-05-10T19:49:36;98828.94;;;16.54
60615;BMP280;46444;45.590;5.284;2023-05-10T19:52:03;98825.09;;;16.75
60615;BMP280;46444;45.590;5.284;2023-05-10T19:54:28;98835.63;;;16.82
60615;BMP280;46444;45.590;5.284;2023-05-10T19:56:53;98832.69;;;16.73
60615;BMP280;46444;45.590;5.284;2023-05-10T19:59:24;98831.94;;;16.53
60615;BMP280;46444;45.590;5.284;2023-05-10T20:01:53;98835.72;;;16.52
60615;BMP280;46444;45.590;5.284;2023-05-10T20:04:43;98840.84;;;16.43
60615;BMP280;46444;45.590;5.284;2023-05-10T20:07:28;98850.81;;;16.23
60615;BMP280;46444;45.590;5.284;2023-05-10T22:26:14;98831.84;;;15.23
60615;BMP280;46444;45.590;5.284;2023-05-10T22:50:47;98837.97;;;15.08
60615;BMP280;46444;45.590;5.284;2023-05-10T22:54:07;98845.56;;;15.21
60615;BMP280;46444;45.590;5.284;2023-05-10T23:01:17;98842.06;;;15.16
60615;BMP280;46444;45.590;5.284;2023-05-10T23:04:24;98835.59;;;15.22
60615;BMP280;46444;45.590;5.284;2023-05-10T23:10:34;98838.06;;;15.33
60615;BMP280;46444;45.590;5.284;2023-05-10T23:13:25;98829.69;;;15.25
60615;BMP280;46444;45.590;5.284;2023-05-10T23:16:15;98844.75;;;15.21
60615;BMP280;46444;45.590;5.284;2023-05-10T23:22:45;98843.88;;;15.05
60615;BMP280;46444;45.590;5.284;2023-05-10T23:25:39;98845.78;;;15.05
60615;BMP280;46444;45.590;5.284;2023-05-10T23:32:08;98835.59;;;15.22
60615;BMP280;46444;45.590;5.284;2023-05-10T23:35:01;98837.78;;;15.30
60615;BMP280;46444;45.590;5.284;2023-05-10T23:38:00;98830.84;;;15.39
60615;BMP280;46444;45.590;5.284;2023-05-10T23:44:01;98829.16;;;15.28
